sensor_id;sensor_type;location;lat;lon;timestamp;P1;durP1;ratioP1;P2;durP2;ratioP2
41333;SDS011;27078;46.428;6.256;2024-02-14T00:01:22;3.78;;;1.42;;
41333;SDS011;27078;46.428;6.256;2024-02-14T00:03:48;3.20;;;1.30;;
41333;SDS011;27078;46.428;6.256;2024-02-14T00:06:14;3.25;;;1.20;;
41333;SDS011;27078;46.428;6.256;2024-02-14T00:08:39;3.40;;;1.30;;
41333;SDS011;27078;46.428;6.256;2024-02-14T00:11:04;4.25;;;1.33;;
41333;SDS011;27078;46.428;6.256;2024-02-14T00:13:37;3.45;;;1.30;;
41333;SDS011;27078;46.428;6.256;2024-02-14T00:16:06;3.78;;;1.33;;
41333;SDS011;27078;46.428;6.256;2024-02-14T00:18:43;2.55;;;1.15;;
41333;SDS011;27078;46.428;6.256;2024-02-14T00:21:09;5.13;;;1.23;;
41333;SDS011;27078;46.428;6.256;2024-02-14T00:23:34;3.13;;;1.10;;
41333;SDS011;27078;46.428;6.256;2024-02-14T00:25:59;3.22;;;1.15;;
41333;SDS011;27078;46.428;6.256;2024-02-14T00:28:25;7.15;;;1.13;;
41333;SDS011;27078;46.428;6.256;2024-02-14T00:30:51;2.60;;;1.05;;
41333;SDS011;27078;46.428;6.256;2024-02-14T00:33:17;2.17;;;0.90;;
41333;SDS011;27078;46.428;6.256;2024-02-14T00:35:43;3.00;;;0.90;;
41333;SDS011;27078;46.428;6.256;2024-02-14T00:38:09;3.08;;;1.08;;
41333;SDS011;27078;46.428;6.256;2024-02-14T00:40:34;3.70;;;1.10;;
41333;SDS011;27078;46.428;6.256;2024-02-14T00:43:00;2.35;;;0.95;;
41333;SDS011;27078;46.428;6.256;2024-02-14T00:45:25;3.08;;;0.90;;
41333;SDS011;27078;46.428;6.256;2024-02-14T00:47:50;3.20;;;0.90;;
41333;SDS011;27078;46.428;6.256;2024-02-14T00:50:16;3.45;;;1.17;;
41333;SDS011;27078;46.428;6.256;2024-02-14T00:52:41;3.58;;;1.25;;
41333;SDS011;27078;46.428;6.256;2024-02-14T00:55:08;3.70;;;1.25;;
41333;SDS011;27078;46.428;6.256;2024-02-14T00:57:33;4.30;;;1.33;;
41333;SDS011;27078;46.428;6.256;2024-02-14T00:59:59;4.13;;;1.05;;
41333;SDS011;27078;46.428;6.256;2024-02-14T01:02:24;3.45;;;1.10;;
41333;SDS011;27078;46.428;6.256;2024-02-14T01:04:51;4.05;;;1.17;;
41333;SDS011;27078;46.428;6.256;2024-02-14T01:07:17;2.47;;;1.20;;
41333;SDS011;27078;46.428;6.256;2024-02-14T01:09:42;6.18;;;1.23;;
41333;SDS011;27078;46.428;6.256;2024-02-14T01:12:07;3.97;;;1.30;;
41333;SDS011;27078;46.428;6.256;2024-02-14T01:14:33;3.85;;;1.20;;
41333;SDS011;27078;46.428;6.256;2024-02-14T01:16:58;4.28;;;1.10;;
41333;SDS011;27078;46.428;6.256;2024-02-14T01:19:23;3.58;;;1.00;;
41333;SDS011;27078;46.428;6.256;2024-02-14T01:21:53;3.22;;;1.17;;
41333;SDS011;27078;46.428;6.256;2024-02-14T01:24:19;2.60;;;0.95;;
41333;SDS011;27078;46.428;6.256;2024-02-14T01:26:44;2.22;;;1.00;;
41333;SDS011;27078;46.428;6.256;2024-02-14T01:29:09;2.78;;;1.10;;
41333;SDS011;27078;46.428;6.256;2024-02-14T01:31:35;2.58;;;1.08;;
41333;SDS011;27078;46.428;6.256;2024-02-14T01:34:00;3.10;;;1.17;;
41333;SDS011;27078;46.428;6.256;2024-02-14T01:36:29;3.15;;;1.08;;
41333;SDS011;27078;46.428;6.256;2024-02-14T01:38:55;3.42;;;1.08;;
41333;SDS011;27078;46.428;6.256;2024-02-14T01:41:20;4.40;;;0.90;;
41333;SDS011;27078;46.428;6.256;2024-02-14T01:43:46;2.35;;;0.73;;
41333;SDS011;27078;46.428;6.256;2024-02-14T01:46:12;3.35;;;1.40;;
41333;SDS011;27078;46.428;6.256;2024-02-14T01:48:38;4.75;;;1.40;;
41333;SDS011;27078;46.428;6.256;2024-02-14T01:51:05;5.07;;;1.60;;
41333;SDS011;27078;46.428;6.256;2024-02-14T01:53:33;3.20;;;1.60;;
41333;SDS011;27078;46.428;6.256;2024-02-14T01:56:00;3.80;;;1.23;;
41333;SDS011;27078;46.428;6.256;2024-02-14T01:58:26;4.32;;;1.60;;
41333;SDS011;27078;46.428;6.256;2024-02-14T02:00:54;4.10;;;1.65;;
41333;SDS011;27078;46.428;6.256;2024-02-14T02:03:24;2.53;;;1.40;;
41333;SDS011;27078;46.428;6.256;2024-02-14T02:05:50;4.18;;;1.45;;
41333;SDS011;27078;46.428;6.256;2024-02-14T02:08:19;3.03;;;1.52;;
41333;SDS011;27078;46.428;6.256;2024-02-14T02:10:45;3.65;;;1.60;;
41333;SDS011;27078;46.428;6.256;2024-02-14T02:13:10;5.45;;;1.80;;
41333;SDS011;27078;46.428;6.256;2024-02-14T02:15:35;4.10;;;1.73;;
41333;SDS011;27078;46.428;6.256;2024-02-14T02:18:02;3.90;;;1.85;;
41333;SDS011;27078;46.428;6.256;2024-02-14T02:20:31;4.18;;;2.20;;
41333;SDS011;27078;46.428;6.256;2024-02-14T02:22:57;5.20;;;2.30;;
41333;SDS011;27078;46.428;6.256;2024-02-14T02:25:22;6.70;;;2.40;;
41333;SDS011;27078;46.428;6.256;2024-02-14T02:27:50;5.35;;;2.00;;
41333;SDS011;27078;46.428;6.256;2024-02-14T02:30:16;4.55;;;1.90;;
41333;SDS011;27078;46.428;6.256;2024-02-14T02:32:42;5.25;;;1.73;;
41333;SDS011;27078;46.428;6.256;2024-02-14T02:35:07;4.32;;;1.60;;
41333;SDS011;27078;46.428;6.256;2024-02-14T02:37:34;4.60;;;1.60;;
41333;SDS011;27078;46.428;6.256;2024-02-14T02:40:00;3.70;;;1.50;;
41333;SDS011;27078;46.428;6.256;2024-02-14T02:42:26;2.42;;;1.40;;
41333;SDS011;27078;46.428;6.256;2024-02-14T02:44:51;4.43;;;1.27;;
41333;SDS011;27078;46.428;6.256;2024-02-14T02:47:17;3.38;;;1.20;;
41333;SDS011;27078;46.428;6.256;2024-02-14T02:49:43;3.13;;;1.10;;
41333;SDS011;27078;46.428;6.256;2024-02-14T02:52:09;4.28;;;1.20;;
41333;SDS011;27078;46.428;6.256;2024-02-14T02:54:38;3.97;;;0.90;;
41333;SDS011;27078;46.428;6.256;2024-02-14T02:57:08;3.63;;;1.15;;
41333;SDS011;27078;46.428;6.256;2024-02-14T02:59:36;2.92;;;1.17;;
41333;SDS011;27078;46.428;6.256;2024-02-14T03:02:02;4.35;;;1.08;;
41333;SDS011;27078;46.428;6.256;2024-02-14T03:04:28;3.17;;;1.10;;
41333;SDS011;27078;46.428;6.256;2024-02-14T03:06:54;2.72;;;1.00;;
41333;SDS011;27078;46.428;6.256;2024-02-14T03:09:20;4.82;;;0.93;;
41333;SDS011;27078;46.428;6.256;2024-02-14T03:11:46;4.45;;;1.20;;
41333;SDS011;27078;46.428;6.256;2024-02-14T03:14:12;2.70;;;1.00;;
41333;SDS011;27078;46.428;6.256;2024-02-14T03:16:38;3.38;;;1.02;;
41333;SDS011;27078;46.428;6.256;2024-02-14T03:19:04;2.30;;;1.00;;
41333;SDS011;27078;46.428;6.256;2024-02-14T03:21:30;3.72;;;1.20;;
41333;SDS011;27078;46.428;6.256;2024-02-14T03:23:57;3.63;;;1.40;;
41333;SDS011;27078;46.428;6.256;2024-02-14T03:26:23;2.60;;;1.00;;
41333;SDS011;27078;46.428;6.256;2024-02-14T03:28:48;2.75;;;1.08;;
41333;SDS011;27078;46.428;6.256;2024-02-14T03:31:14;3.65;;;1.40;;
41333;SDS011;27078;46.428;6.256;2024-02-14T03:33:40;3.85;;;1.30;;
41333;SDS011;27078;46.428;6.256;2024-02-14T03:36:06;3.00;;;1.20;;
41333;SDS011;27078;46.428;6.256;2024-02-14T03:38:32;3.78;;;1.10;;
41333;SDS011;27078;46.428;6.256;2024-02-14T03:40:57;2.30;;;1.13;;
41333;SDS011;27078;46.428;6.256;2024-02-14T03:43:22;3.85;;;1.13;;
41333;SDS011;27078;46.428;6.256;2024-02-14T03:45:49;4.50;;;1.40;;
41333;SDS011;27078;46.428;6.256;2024-02-14T03:48:14;3.78;;;1.30;;
41333;SDS011;27078;46.428;6.256;2024-02-14T03:50:40;4.00;;;1.63;;
41333;SDS011;27078;46.428;6.256;2024-02-14T03:53:07;4.78;;;1.30;;
41333;SDS011;27078;46.428;6.256;2024-02-14T03:55:33;3.67;;;1.30;;
41333;SDS011;27078;46.428;6.256;2024-02-14T03:57:59;4.50;;;1.52;;
41333;SDS011;27078;46.428;6.256;2024-02-14T04:00:25;2.75;;;1.40;;
41333;SDS011;27078;46.428;6.256;2024-02-14T04:02:50;5.28;;;2.00;;
41333;SDS011;27078;46.428;6.256;2024-02-14T04:05:18;5.57;;;2.00;;
41333;SDS011;27078;46.428;6.256;2024-02-14T04:07:44;5.68;;;2.25;;
41333;SDS011;27078;46.428;6.256;2024-02-14T04:10:19;4.88;;;2.17;;
41333;SDS011;27078;46.428;6.256;2024-02-14T04:13:17;5.70;;;2.30;;
41333;SDS011;27078;46.428;6.256;2024-02-14T04:15:43;6.13;;;2.63;;
41333;SDS011;27078;46.428;6.256;2024-02-14T04:18:08;7.65;;;2.42;;
41333;SDS011;27078;46.428;6.256;2024-02-14T04:20:34;6.43;;;2.50;;
41333;SDS011;27078;46.428;6.256;2024-02-14T04:23:00;5.43;;;2.50;;
41333;SDS011;27078;46.428;6.256;2024-02-14T04:25:26;4.90;;;2.30;;
41333;SDS011;27078;46.428;6.256;2024-02-14T04:27:51;5.88;;;2.60;;
41333;SDS011;27078;46.428;6.256;2024-02-14T04:30:16;6.32;;;2.50;;
41333;SDS011;27078;46.428;6.256;2024-02-14T04:32:42;4.13;;;1.90;;
41333;SDS011;27078;46.428;6.256;2024-02-14T04:35:08;4.28;;;2.30;;
41333;SDS011;27078;46.428;6.256;2024-02-14T04:37:34;4.10;;;2.10;;
41333;SDS011;27078;46.428;6.256;2024-02-14T04:39:59;4.03;;;2.55;;
41333;SDS011;27078;46.428;6.256;2024-02-14T04:42:25;5.82;;;2.90;;
41333;SDS011;27078;46.428;6.256;2024-02-14T04:44:50;3.90;;;2.08;;
41333;SDS011;27078;46.428;6.256;2024-02-14T04:47:15;4.65;;;2.40;;
41333;SDS011;27078;46.428;6.256;2024-02-14T04:49:40;6.53;;;2.53;;
41333;SDS011;27078;46.428;6.256;2024-02-14T04:52:06;5.07;;;2.20;;
41333;SDS011;27078;46.428;6.256;2024-02-14T04:54:32;3.22;;;1.52;;
41333;SDS011;27078;46.428;6.256;2024-02-14T04:56:58;2.95;;;1.15;;
41333;SDS011;27078;46.428;6.256;2024-02-14T04:59:23;3.47;;;1.20;;
41333;SDS011;27078;46.428;6.256;2024-02-14T05:01:49;2.67;;;1.02;;
41333;SDS011;27078;46.428;6.256;2024-02-14T05:04:15;2.45;;;1.05;;
41333;SDS011;27078;46.428;6.256;2024-02-14T05:06:41;2.13;;;1.00;;
41333;SDS011;27078;46.428;6.256;2024-02-14T05:09:07;2.92;;;0.98;;
41333;SDS011;27078;46.428;6.256;2024-02-14T05:11:35;3.28;;;1.08;;
41333;SDS011;27078;46.428;6.256;2024-02-14T05:14:01;3.58;;;1.00;;
41333;SDS011;27078;46.428;6.256;2024-02-14T05:16:27;3.88;;;1.30;;
41333;SDS011;27078;46.428;6.256;2024-02-14T05:18:52;2.30;;;1.10;;
41333;SDS011;27078;46.428;6.256;2024-02-14T05:21:19;3.15;;;1.70;;
41333;SDS011;27078;46.428;6.256;2024-02-14T05:23:46;4.13;;;2.25;;
41333;SDS011;27078;46.428;6.256;2024-02-14T05:26:12;5.35;;;3.10;;
41333;SDS011;27078;46.428;6.256;2024-02-14T05:28:37;6.60;;;3.22;;
41333;SDS011;27078;46.428;6.256;2024-02-14T05:31:02;6.60;;;3.45;;
41333;SDS011;27078;46.428;6.256;2024-02-14T05:33:28;7.25;;;3.20;;
41333;SDS011;27078;46.428;6.256;2024-02-14T05:35:53;4.47;;;2.70;;
41333;SDS011;27078;46.428;6.256;2024-02-14T05:38:21;7.22;;;3.13;;
41333;SDS011;27078;46.428;6.256;2024-02-14T05:40:47;6.35;;;3.20;;
41333;SDS011;27078;46.428;6.256;2024-02-14T05:43:13;7.82;;;3.40;;
41333;SDS011;27078;46.428;6.256;2024-02-14T05:45:38;5.40;;;3.15;;
41333;SDS011;27078;46.428;6.256;2024-02-14T05:48:04;6.70;;;3.10;;
41333;SDS011;27078;46.428;6.256;2024-02-14T05:50:29;4.57;;;2.35;;
41333;SDS011;27078;46.428;6.256;2024-02-14T05:52:55;6.40;;;3.05;;
41333;SDS011;27078;46.428;6.256;2024-02-14T05:55:22;6.22;;;3.10;;
41333;SDS011;27078;46.428;6.256;2024-02-14T05:57:48;6.18;;;2.83;;
41333;SDS011;27078;46.428;6.256;2024-02-14T06:00:14;6.82;;;4.20;;
41333;SDS011;27078;46.428;6.256;2024-02-14T06:02:39;10.60;;;4.75;;
41333;SDS011;27078;46.428;6.256;2024-02-14T06:05:05;7.72;;;4.40;;
41333;SDS011;27078;46.428;6.256;2024-02-14T06:07:34;10.18;;;4.60;;
41333;SDS011;27078;46.428;6.256;2024-02-14T06:10:02;6.78;;;3.83;;
41333;SDS011;27078;46.428;6.256;2024-02-14T06:12:27;7.38;;;4.10;;
41333;SDS011;27078;46.428;6.256;2024-02-14T06:14:54;8.48;;;4.25;;
41333;SDS011;27078;46.428;6.256;2024-02-14T06:17:20;7.13;;;4.03;;
41333;SDS011;27078;46.428;6.256;2024-02-14T06:19:45;7.05;;;4.10;;
41333;SDS011;27078;46.428;6.256;2024-02-14T06:22:11;7.45;;;3.67;;
41333;SDS011;27078;46.428;6.256;2024-02-14T06:24:36;5.45;;;2.80;;
41333;SDS011;27078;46.428;6.256;2024-02-14T06:27:01;4.80;;;2.40;;
41333;SDS011;27078;46.428;6.256;2024-02-14T06:29:27;5.85;;;2.35;;
41333;SDS011;27078;46.428;6.256;2024-02-14T06:31:52;5.15;;;2.50;;
41333;SDS011;27078;46.428;6.256;2024-02-14T06:34:17;4.50;;;2.05;;
41333;SDS011;27078;46.428;6.256;2024-02-14T06:36:44;3.83;;;2.10;;
41333;SDS011;27078;46.428;6.256;2024-02-14T06:39:11;6.15;;;2.45;;
41333;SDS011;27078;46.428;6.256;2024-02-14T06:41:36;4.68;;;2.50;;
41333;SDS011;27078;46.428;6.256;2024-02-14T06:44:02;5.97;;;2.25;;
41333;SDS011;27078;46.428;6.256;2024-02-14T06:46:27;5.82;;;2.38;;
41333;SDS011;27078;46.428;6.256;2024-02-14T06:48:53;3.80;;;2.17;;
41333;SDS011;27078;46.428;6.256;2024-02-14T06:51:19;6.38;;;2.33;;
41333;SDS011;27078;46.428;6.256;2024-02-14T06:53:45;3.65;;;2.13;;
41333;SDS011;27078;46.428;6.256;2024-02-14T06:56:11;5.85;;;2.45;;
41333;SDS011;27078;46.428;6.256;2024-02-14T06:58:36;4.20;;;2.47;;
41333;SDS011;27078;46.428;6.256;2024-02-14T07:01:01;5.13;;;2.30;;
41333;SDS011;27078;46.428;6.256;2024-02-14T07:03:28;4.90;;;1.88;;
41333;SDS011;27078;46.428;6.256;2024-02-14T07:05:53;5.22;;;2.38;;
41333;SDS011;27078;46.428;6.256;2024-02-14T07:08:18;3.92;;;1.67;;
41333;SDS011;27078;46.428;6.256;2024-02-14T07:10:44;3.22;;;1.83;;
41333;SDS011;27078;46.428;6.256;2024-02-14T07:13:09;4.13;;;1.92;;
41333;SDS011;27078;46.428;6.256;2024-02-14T07:15:34;4.10;;;1.90;;
41333;SDS011;27078;46.428;6.256;2024-02-14T07:18:00;5.25;;;1.90;;
41333;SDS011;27078;46.428;6.256;2024-02-14T07:20:25;5.03;;;2.10;;
41333;SDS011;27078;46.428;6.256;2024-02-14T07:22:53;6.57;;;2.00;;
41333;SDS011;27078;46.428;6.256;2024-02-14T07:25:19;7.85;;;2.33;;
41333;SDS011;27078;46.428;6.256;2024-02-14T07:27:45;6.07;;;1.80;;
41333;SDS011;27078;46.428;6.256;2024-02-14T07:30:15;5.35;;;1.80;;
41333;SDS011;27078;46.428;6.256;2024-02-14T07:32:41;5.82;;;2.00;;
41333;SDS011;27078;46.428;6.256;2024-02-14T07:35:06;5.18;;;2.08;;
41333;SDS011;27078;46.428;6.256;2024-02-14T07:37:32;5.63;;;1.92;;
41333;SDS011;27078;46.428;6.256;2024-02-14T07:39:58;5.25;;;2.03;;
41333;SDS011;27078;46.428;6.256;2024-02-14T07:42:23;6.70;;;2.80;;
41333;SDS011;27078;46.428;6.256;2024-02-14T07:44:48;6.82;;;3.80;;
41333;SDS011;27078;46.428;6.256;2024-02-14T07:47:14;7.05;;;3.90;;
41333;SDS011;27078;46.428;6.256;2024-02-14T07:49:39;8.35;;;4.38;;
41333;SDS011;27078;46.428;6.256;2024-02-14T07:52:06;7.15;;;4.10;;
41333;SDS011;27078;46.428;6.256;2024-02-14T07:54:31;7.55;;;4.60;;
41333;SDS011;27078;46.428;6.256;2024-02-14T07:56:57;8.82;;;4.32;;
41333;SDS011;27078;46.428;6.256;2024-02-14T07:59:22;6.78;;;4.25;;
41333;SDS011;27078;46.428;6.256;2024-02-14T08:01:47;8.25;;;4.20;;
41333;SDS011;27078;46.428;6.256;2024-02-14T08:04:13;7.97;;;4.38;;
41333;SDS011;27078;46.428;6.256;2024-02-14T08:06:38;7.95;;;4.15;;
41333;SDS011;27078;46.428;6.256;2024-02-14T08:09:03;7.60;;;4.25;;
41333;SDS011;27078;46.428;6.256;2024-02-14T08:11:31;9.65;;;4.32;;
41333;SDS011;27078;46.428;6.256;2024-02-14T08:13:57;9.50;;;4.20;;
41333;SDS011;27078;46.428;6.256;2024-02-14T08:16:23;8.25;;;4.03;;
41333;SDS011;27078;46.428;6.256;2024-02-14T08:18:49;9.65;;;4.35;;
41333;SDS011;27078;46.428;6.256;2024-02-14T08:21:15;8.20;;;4.00;;
41333;SDS011;27078;46.428;6.256;2024-02-14T08:23:41;8.02;;;4.28;;
41333;SDS011;27078;46.428;6.256;2024-02-14T08:26:07;8.05;;;4.47;;
41333;SDS011;27078;46.428;6.256;2024-02-14T08:28:38;8.38;;;4.30;;
41333;SDS011;27078;46.428;6.256;2024-02-14T08:31:10;7.82;;;4.18;;
41333;SDS011;27078;46.428;6.256;2024-02-14T08:33:36;13.23;;;3.95;;
41333;SDS011;27078;46.428;6.256;2024-02-14T08:36:03;12.57;;;4.35;;
41333;SDS011;27078;46.428;6.256;2024-02-14T08:38:29;10.38;;;4.03;;
41333;SDS011;27078;46.428;6.256;2024-02-14T08:40:54;9.15;;;4.38;;
41333;SDS011;27078;46.428;6.256;2024-02-14T08:43:20;12.77;;;4.68;;
41333;SDS011;27078;46.428;6.256;2024-02-14T08:45:45;10.40;;;4.15;;
41333;SDS011;27078;46.428;6.256;2024-02-14T08:48:10;8.63;;;4.30;;
41333;SDS011;27078;46.428;6.256;2024-02-14T08:50:36;9.68;;;4.93;;
41333;SDS011;27078;46.428;6.256;2024-02-14T08:53:01;9.27;;;4.00;;
41333;SDS011;27078;46.428;6.256;2024-02-14T08:55:26;8.60;;;4.78;;
41333;SDS011;27078;46.428;6.256;2024-02-14T08:57:52;10.10;;;5.40;;
41333;SDS011;27078;46.428;6.256;2024-02-14T09:00:17;10.55;;;4.68;;
41333;SDS011;27078;46.428;6.256;2024-02-14T09:02:47;10.43;;;5.10;;
41333;SDS011;27078;46.428;6.256;2024-02-14T09:05:13;11.23;;;4.93;;
41333;SDS011;27078;46.428;6.256;2024-02-14T09:07:39;9.05;;;4.68;;
41333;SDS011;27078;46.428;6.256;2024-02-14T09:10:06;12.15;;;5.03;;
41333;SDS011;27078;46.428;6.256;2024-02-14T09:12:32;8.27;;;4.15;;
41333;SDS011;27078;46.428;6.256;2024-02-14T09:14:58;9.13;;;4.53;;
41333;SDS011;27078;46.428;6.256;2024-02-14T09:17:24;8.65;;;4.55;;
41333;SDS011;27078;46.428;6.256;2024-02-14T09:19:49;7.97;;;4.30;;
41333;SDS011;27078;46.428;6.256;2024-02-14T09:22:15;7.85;;;3.97;;
41333;SDS011;27078;46.428;6.256;2024-02-14T09:24:46;10.35;;;4.43;;
41333;SDS011;27078;46.428;6.256;2024-02-14T09:27:12;8.27;;;3.70;;
41333;SDS011;27078;46.428;6.256;2024-02-14T09:29:37;6.60;;;3.55;;
41333;SDS011;27078;46.428;6.256;2024-02-14T09:32:03;7.65;;;3.75;;
41333;SDS011;27078;46.428;6.256;2024-02-14T09:34:29;8.35;;;3.90;;
41333;SDS011;27078;46.428;6.256;2024-02-14T09:36:54;11.18;;;4.20;;
41333;SDS011;27078;46.428;6.256;2024-02-14T09:39:21;8.07;;;4.10;;
41333;SDS011;27078;46.428;6.256;2024-02-14T09:41:50;10.55;;;4.15;;
41333;SDS011;27078;46.428;6.256;2024-02-14T09:44:19;7.60;;;3.75;;
41333;SDS011;27078;46.428;6.256;2024-02-14T09:46:46;8.07;;;3.97;;
41333;SDS011;27078;46.428;6.256;2024-02-14T09:49:13;6.45;;;3.60;;
41333;SDS011;27078;46.428;6.256;2024-02-14T09:51:41;8.27;;;4.30;;
41333;SDS011;27078;46.428;6.256;2024-02-14T09:54:09;10.13;;;3.95;;
41333;SDS011;27078;46.428;6.256;2024-02-14T09:56:36;7.63;;;3.75;;
41333;SDS011;27078;46.428;6.256;2024-02-14T09:59:02;7.03;;;3.67;;
41333;SDS011;27078;46.428;6.256;2024-02-14T10:01:27;7.15;;;3.90;;
41333;SDS011;27078;46.428;6.256;2024-02-14T10:03:53;8.50;;;4.10;;
41333;SDS011;27078;46.428;6.256;2024-02-14T10:06:19;7.97;;;3.85;;
41333;SDS011;27078;46.428;6.256;2024-02-14T10:08:46;7.30;;;3.80;;
41333;SDS011;27078;46.428;6.256;2024-02-14T10:11:12;8.43;;;3.90;;
41333;SDS011;27078;46.428;6.256;2024-02-14T10:13:39;10.52;;;3.85;;
41333;SDS011;27078;46.428;6.256;2024-02-14T10:16:05;6.47;;;3.60;;
41333;SDS011;27078;46.428;6.256;2024-02-14T10:18:33;8.38;;;3.50;;
41333;SDS011;27078;46.428;6.256;2024-02-14T10:20:58;8.13;;;3.60;;
41333;SDS011;27078;46.428;6.256;2024-02-14T10:23:23;5.25;;;3.38;;
41333;SDS011;27078;46.428;6.256;2024-02-14T10:25:50;7.60;;;3.40;;
41333;SDS011;27078;46.428;6.256;2024-02-14T10:28:17;5.85;;;3.40;;
41333;SDS011;27078;46.428;6.256;2024-02-14T10:30:45;5.25;;;2.88;;
41333;SDS011;27078;46.428;6.256;2024-02-14T10:33:11;7.53;;;3.70;;
41333;SDS011;27078;46.428;6.256;2024-02-14T10:35:36;6.97;;;3.70;;
41333;SDS011;27078;46.428;6.256;2024-02-14T10:38:06;7.88;;;3.80;;
41333;SDS011;27078;46.428;6.256;2024-02-14T10:40:34;5.05;;;3.20;;
41333;SDS011;27078;46.428;6.256;2024-02-14T10:43:01;6.90;;;3.50;;
41333;SDS011;27078;46.428;6.256;2024-02-14T10:45:26;7.00;;;2.88;;
41333;SDS011;27078;46.428;6.256;2024-02-14T10:47:55;7.50;;;3.17;;
41333;SDS011;27078;46.428;6.256;2024-02-14T10:50:22;7.43;;;3.53;;
41333;SDS011;27078;46.428;6.256;2024-02-14T10:52:49;6.78;;;3.63;;
41333;SDS011;27078;46.428;6.256;2024-02-14T10:55:18;7.25;;;3.78;;
41333;SDS011;27078;46.428;6.256;2024-02-14T10:57:45;5.75;;;3.38;;
41333;SDS011;27078;46.428;6.256;2024-02-14T11:00:12;6.10;;;3.70;;
41333;SDS011;27078;46.428;6.256;2024-02-14T11:02:40;8.68;;;3.90;;
41333;SDS011;27078;46.428;6.256;2024-02-14T11:05:13;7.25;;;4.20;;
41333;SDS011;27078;46.428;6.256;2024-02-14T11:07:45;5.63;;;3.40;;
41333;SDS011;27078;46.428;6.256;2024-02-14T11:10:15;7.88;;;3.58;;
41333;SDS011;27078;46.428;6.256;2024-02-14T11:12:42;9.02;;;3.50;;
41333;SDS011;27078;46.428;6.256;2024-02-14T11:15:16;5.22;;;3.50;;
41333;SDS011;27078;46.428;6.256;2024-02-14T11:17:46;6.68;;;3.53;;
41333;SDS011;27078;46.428;6.256;2024-02-14T11:25:32;7.93;;;3.80;;
41333;SDS011;27078;46.428;6.256;2024-02-14T11:28:19;7.78;;;3.42;;
41333;SDS011;27078;46.428;6.256;2024-02-14T11:30:49;8.68;;;3.53;;
41333;SDS011;27078;46.428;6.256;2024-02-14T11:35:43;7.68;;;3.67;;
41333;SDS011;27078;46.428;6.256;2024-02-14T11:38:10;5.43;;;3.25;;
41333;SDS011;27078;46.428;6.256;2024-02-14T11:40:36;7.03;;;3.03;;
41333;SDS011;27078;46.428;6.256;2024-02-14T11:43:03;5.40;;;2.83;;
41333;SDS011;27078;46.428;6.256;2024-02-14T11:45:29;5.03;;;2.90;;
41333;SDS011;27078;46.428;6.256;2024-02-14T11:47:55;6.15;;;2.92;;
41333;SDS011;27078;46.428;6.256;2024-02-14T11:50:20;5.05;;;2.60;;
41333;SDS011;27078;46.428;6.256;2024-02-14T11:52:46;4.88;;;2.70;;
41333;SDS011;27078;46.428;6.256;2024-02-14T11:55:12;6.20;;;2.70;;
41333;SDS011;27078;46.428;6.256;2024-02-14T11:57:40;4.45;;;2.90;;
41333;SDS011;27078;46.428;6.256;2024-02-14T12:00:06;6.20;;;3.00;;
41333;SDS011;27078;46.428;6.256;2024-02-14T12:02:32;4.43;;;2.90;;
41333;SDS011;27078;46.428;6.256;2024-02-14T12:04:57;6.40;;;2.97;;
41333;SDS011;27078;46.428;6.256;2024-02-14T12:07:23;6.47;;;2.90;;
41333;SDS011;27078;46.428;6.256;2024-02-14T12:09:51;5.45;;;2.63;;
41333;SDS011;27078;46.428;6.256;2024-02-14T12:12:16;6.72;;;2.67;;
41333;SDS011;27078;46.428;6.256;2024-02-14T12:14:45;9.93;;;4.10;;
41333;SDS011;27078;46.428;6.256;2024-02-14T12:17:15;9.25;;;4.45;;
41333;SDS011;27078;46.428;6.256;2024-02-14T12:19:43;6.32;;;3.45;;
41333;SDS011;27078;46.428;6.256;2024-02-14T12:22:09;9.10;;;4.55;;
41333;SDS011;27078;46.428;6.256;2024-02-14T12:24:45;7.57;;;3.53;;
41333;SDS011;27078;46.428;6.256;2024-02-14T12:27:12;6.60;;;3.70;;
41333;SDS011;27078;46.428;6.256;2024-02-14T12:29:37;7.28;;;3.90;;
41333;SDS011;27078;46.428;6.256;2024-02-14T12:32:06;6.63;;;3.65;;
41333;SDS011;27078;46.428;6.256;2024-02-14T12:34:32;6.97;;;3.63;;
41333;SDS011;27078;46.428;6.256;2024-02-14T12:36:58;5.88;;;3.67;;
41333;SDS011;27078;46.428;6.256;2024-02-14T12:39:24;6.55;;;3.33;;
41333;SDS011;27078;46.428;6.256;2024-02-14T12:41:51;5.88;;;3.35;;
41333;SDS011;27078;46.428;6.256;2024-02-14T12:44:17;6.25;;;3.33;;
41333;SDS011;27078;46.428;6.256;2024-02-14T12:46:42;6.72;;;3.25;;
41333;SDS011;27078;46.428;6.256;2024-02-14T12:49:08;8.68;;;4.43;;
41333;SDS011;27078;46.428;6.256;2024-02-14T12:51:34;8.35;;;3.63;;
41333;SDS011;27078;46.428;6.256;2024-02-14T12:54:03;7.47;;;3.53;;
41333;SDS011;27078;46.428;6.256;2024-02-14T12:56:30;6.38;;;3.80;;
41333;SDS011;27078;46.428;6.256;2024-02-14T12:58:56;5.00;;;3.25;;
41333;SDS011;27078;46.428;6.256;2024-02-14T13:01:22;7.10;;;3.63;;
41333;SDS011;27078;46.428;6.256;2024-02-14T13:03:47;7.43;;;4.15;;
41333;SDS011;27078;46.428;6.256;2024-02-14T13:06:13;9.07;;;3.45;;
41333;SDS011;27078;46.428;6.256;2024-02-14T13:08:41;7.82;;;3.45;;
41333;SDS011;27078;46.428;6.256;2024-02-14T13:11:06;9.15;;;3.17;;
41333;SDS011;27078;46.428;6.256;2024-02-14T13:13:33;6.10;;;2.80;;
41333;SDS011;27078;46.428;6.256;2024-02-14T13:15:59;5.45;;;3.00;;
41333;SDS011;27078;46.428;6.256;2024-02-14T13:18:25;4.75;;;2.50;;
41333;SDS011;27078;46.428;6.256;2024-02-14T13:20:50;4.75;;;2.78;;
41333;SDS011;27078;46.428;6.256;2024-02-14T13:23:23;5.25;;;3.50;;
41333;SDS011;27078;46.428;6.256;2024-02-14T13:25:49;4.90;;;2.90;;
41333;SDS011;27078;46.428;6.256;2024-02-14T13:28:15;5.80;;;2.70;;
41333;SDS011;27078;46.428;6.256;2024-02-14T13:30:40;6.47;;;3.10;;
41333;SDS011;27078;46.428;6.256;2024-02-14T13:33:05;3.80;;;2.60;;
41333;SDS011;27078;46.428;6.256;2024-02-14T13:35:31;5.65;;;2.70;;
41333;SDS011;27078;46.428;6.256;2024-02-14T13:37:56;6.07;;;2.80;;
41333;SDS011;27078;46.428;6.256;2024-02-14T13:40:23;4.50;;;2.50;;
41333;SDS011;27078;46.428;6.256;2024-02-14T13:42:48;6.38;;;2.78;;
41333;SDS011;27078;46.428;6.256;2024-02-14T13:45:14;6.30;;;2.40;;
41333;SDS011;27078;46.428;6.256;2024-02-14T13:47:41;6.47;;;2.67;;
41333;SDS011;27078;46.428;6.256;2024-02-14T13:50:11;4.65;;;2.45;;
41333;SDS011;27078;46.428;6.256;2024-02-14T13:52:37;7.45;;;2.72;;
41333;SDS011;27078;46.428;6.256;2024-02-14T13:55:03;6.55;;;2.65;;
41333;SDS011;27078;46.428;6.256;2024-02-14T13:57:31;5.13;;;2.63;;
41333;SDS011;27078;46.428;6.256;2024-02-14T13:59:59;5.65;;;2.75;;
41333;SDS011;27078;46.428;6.256;2024-02-14T14:02:24;6.90;;;4.28;;
41333;SDS011;27078;46.428;6.256;2024-02-14T14:04:50;4.53;;;2.63;;
41333;SDS011;27078;46.428;6.256;2024-02-14T14:07:15;4.15;;;2.47;;
41333;SDS011;27078;46.428;6.256;2024-02-14T14:09:40;5.20;;;2.50;;
41333;SDS011;27078;46.428;6.256;2024-02-14T14:12:06;11.65;;;5.63;;
41333;SDS011;27078;46.428;6.256;2024-02-14T14:14:31;5.38;;;2.60;;
41333;SDS011;27078;46.428;6.256;2024-02-14T14:16:56;6.50;;;2.80;;
41333;SDS011;27078;46.428;6.256;2024-02-14T14:19:22;6.45;;;3.30;;
41333;SDS011;27078;46.428;6.256;2024-02-14T14:21:48;6.30;;;2.50;;
41333;SDS011;27078;46.428;6.256;2024-02-14T14:24:13;6.03;;;2.60;;
41333;SDS011;27078;46.428;6.256;2024-02-14T14:26:40;5.72;;;2.58;;
41333;SDS011;27078;46.428;6.256;2024-02-14T14:29:05;7.28;;;3.10;;
41333;SDS011;27078;46.428;6.256;2024-02-14T14:31:31;7.30;;;3.53;;
41333;SDS011;27078;46.428;6.256;2024-02-14T14:33:56;4.80;;;2.67;;
41333;SDS011;27078;46.428;6.256;2024-02-14T14:36:22;4.05;;;2.53;;
41333;SDS011;27078;46.428;6.256;2024-02-14T14:38:47;6.55;;;2.78;;
41333;SDS011;27078;46.428;6.256;2024-02-14T14:41:12;5.63;;;2.60;;
41333;SDS011;27078;46.428;6.256;2024-02-14T14:43:39;6.22;;;2.80;;
41333;SDS011;27078;46.428;6.256;2024-02-14T14:46:04;4.40;;;2.60;;
41333;SDS011;27078;46.428;6.256;2024-02-14T14:48:30;5.50;;;2.70;;
41333;SDS011;27078;46.428;6.256;2024-02-14T14:50:55;8.30;;;3.97;;